createdAt,value
2023-04-05T00:01:02.820Z,2.40
2023-04-05T00:05:07.020Z,2.10
2023-04-05T00:09:12.341Z,3.78
2023-04-05T00:13:16.133Z,2.53
2023-04-05T00:17:19.805Z,1.92
2023-04-05T00:21:24.985Z,2.28
2023-04-05T00:29:41.579Z,2.15
2023-04-05T00:33:44.943Z,2.45
2023-04-05T00:37:51.501Z,2.30
2023-04-05T00:41:54.739Z,2.40
2023-04-05T00:46:01.267Z,3.70
2023-04-05T00:50:05.124Z,3.35
2023-04-05T00:54:09.152Z,2.38
2023-04-05T00:58:13.004Z,3.30
2023-04-05T01:02:25.330Z,3.15
2023-04-05T01:06:42.657Z,3.67
2023-04-05T01:10:53.664Z,3.13
2023-04-05T01:14:57.226Z,3.03
2023-04-05T01:19:06.853Z,3.00
2023-04-05T01:23:44.710Z,3.88
2023-04-05T01:28:11.268Z,2.65
2023-04-05T01:32:26.521Z,3.85
2023-04-05T01:36:36.716Z,2.53
2023-04-05T01:40:40.664Z,3.00
2023-04-05T01:44:44.545Z,3.88
2023-04-05T01:48:48.937Z,3.67
2023-04-05T01:52:52.994Z,4.45
2023-04-05T01:56:56.863Z,3.40
2023-04-05T02:01:00.557Z,3.35
2023-04-05T02:05:05.188Z,4.10
2023-04-05T02:09:11.925Z,3.00
2023-04-05T02:13:15.355Z,3.20
2023-04-05T02:21:46.438Z,3.53
2023-04-05T02:25:49.984Z,2.60
2023-04-05T02:29:53.234Z,3.65
2023-04-05T02:34:00.062Z,4.15
2023-04-05T02:38:05.153Z,3.65
2023-04-05T02:42:08.584Z,3.55
2023-04-05T02:46:11.802Z,3.42
2023-04-05T02:50:15.394Z,3.15
2023-04-05T02:54:19.921Z,3.35
2023-04-05T02:58:23.798Z,4.18
2023-04-05T03:02:27.380Z,2.63
2023-04-05T03:06:32.771Z,3.75
2023-04-05T03:10:39.256Z,3.10
2023-04-05T03:14:42.771Z,3.03
2023-04-05T03:18:45.886Z,3.72
2023-04-05T03:22:48.549Z,3.58
2023-04-05T03:26:53.205Z,4.20
2023-04-05T03:30:56.461Z,4.50
2023-04-05T03:34:59.777Z,3.60
2023-04-05T03:39:03.910Z,3.85
2023-04-05T03:43:08.400Z,4.43
2023-04-05T03:47:13.606Z,3.38
2023-04-05T03:51:16.818Z,4.47
2023-04-05T03:55:20.732Z,4.63
2023-04-05T03:59:25.375Z,4.70
2023-04-05T04:03:29.163Z,3.83
2023-04-05T04:07:32.452Z,4.03
2023-04-05T04:11:39.105Z,3.40
2023-04-05T04:15:43.627Z,3.42
2023-04-05T04:19:47.096Z,3.22
2023-04-05T04:23:50.419Z,4.35
2023-04-05T04:27:54.957Z,6.65
2023-04-05T04:32:01.206Z,5.85
2023-04-05T04:36:09.834Z,4.93
2023-04-05T04:40:17.466Z,4.25
2023-04-05T04:44:28.658Z,4.15
2023-04-05T04:48:33.334Z,3.20
2023-04-05T04:52:36.957Z,3.85
2023-04-05T04:56:40.287Z,3.65
2023-04-05T05:00:45.808Z,4.45
2023-04-05T05:04:50.582Z,4.63
2023-04-05T05:08:54.761Z,4.00
2023-04-05T05:12:58.130Z,4.10
2023-04-05T05:17:02.123Z,4.80
2023-04-05T05:21:07.462Z,3.40
2023-04-05T05:25:12.868Z,3.58
2023-04-05T05:29:16.039Z,3.78
2023-04-05T05:33:20.367Z,5.93
2023-04-05T05:37:31.183Z,5.18
2023-04-05T05:41:35.200Z,6.10
2023-04-05T05:45:38.620Z,5.18
2023-04-05T05:49:42.647Z,5.20
2023-04-05T05:53:47.223Z,4.32
2023-04-05T05:57:50.798Z,4.43
2023-04-05T06:01:53.924Z,4.28
2023-04-05T06:06:00.721Z,4.18
2023-04-05T06:10:06.298Z,3.45
2023-04-05T06:14:09.743Z,3.08
2023-04-05T06:18:13.153Z,3.72
2023-04-05T06:22:17.188Z,2.22
2023-04-05T06:30:25.091Z,2.13
2023-04-05T06:34:28.591Z,2.47
2023-04-05T06:38:32.022Z,2.85
2023-04-05T06:42:35.624Z,1.88
2023-04-05T06:46:41.030Z,2.50
2023-04-05T06:50:44.222Z,1.95
2023-04-05T06:54:47.295Z,2.33
2023-04-05T06:58:51.158Z,2.22
2023-04-05T07:02:56.162Z,1.98
2023-04-05T07:07:02.314Z,2.22
2023-04-05T07:11:06.759Z,2.67
2023-04-05T07:15:11.391Z,3.08
2023-04-05T07:19:16.859Z,2.20
2023-04-05T07:23:22.543Z,2.90
2023-04-05T07:27:27.868Z,2.08
2023-04-05T07:31:31.569Z,2.35
2023-04-05T07:35:38.000Z,1.60
2023-04-05T07:39:41.900Z,2.13
2023-04-05T07:43:45.039Z,2.00
2023-04-05T07:47:48.173Z,1.30
2023-04-05T07:51:56.396Z,2.28
2023-04-05T07:55:59.589Z,2.40
2023-04-05T08:00:04.802Z,2.25
2023-04-05T08:04:08.064Z,1.33
2023-04-05T08:08:12.805Z,1.88
2023-04-05T08:12:16.162Z,1.85
2023-04-05T08:16:20.135Z,1.48
2023-04-05T08:20:23.391Z,1.65
2023-04-05T08:24:28.472Z,1.08
2023-04-05T08:28:32.142Z,1.30
2023-04-05T08:32:36.091Z,1.30
2023-04-05T08:36:39.355Z,1.35
2023-04-05T08:40:46.996Z,1.13
2023-04-05T08:44:53.245Z,0.95
2023-04-05T08:48:57.956Z,1.10
2023-04-05T08:53:01.569Z,1.33
2023-04-05T08:57:08.785Z,1.38
2023-04-05T09:01:12.310Z,1.50
2023-04-05T09:05:18.426Z,1.80
2023-04-05T09:09:22.811Z,0.68
2023-04-05T09:13:28.158Z,1.25
2023-04-05T09:17:32.876Z,1.20
2023-04-05T09:22:00.966Z,1.20
2023-04-05T09:26:19.809Z,1.67
2023-04-05T09:30:25.314Z,1.05
2023-04-05T09:34:28.487Z,1.55
2023-04-05T09:38:45.203Z,1.30
2023-04-05T09:42:48.650Z,1.42
2023-04-05T09:46:54.017Z,1.60
2023-04-05T09:51:12.694Z,1.52
2023-04-05T09:55:28.207Z,1.00
2023-04-05T09:59:32.173Z,1.10
2023-04-05T10:03:49.120Z,1.00
2023-04-05T10:07:53.142Z,1.65
2023-04-05T10:11:57.433Z,1.35
2023-04-05T10:16:07.541Z,1.40
2023-04-05T10:20:17.782Z,1.20
2023-04-05T10:24:32.241Z,1.70
2023-04-05T10:28:37.771Z,1.23
2023-04-05T10:32:57.450Z,1.02
2023-04-05T10:37:04.457Z,1.27
2023-04-05T10:41:16.011Z,1.17
2023-04-05T10:45:22.920Z,1.08
2023-04-05T10:49:33.997Z,0.93
2023-04-05T10:53:40.429Z,1.10
2023-04-05T10:57:45.309Z,0.85
2023-04-05T11:01:49.984Z,1.10
2023-04-05T11:06:13.225Z,1.13
2023-04-05T11:14:23.866Z,1.08
2023-04-05T11:18:27.738Z,0.80
2023-04-05T11:22:31.644Z,1.15
2023-04-05T11:27:08.174Z,1.02
2023-04-05T11:31:15.633Z,1.42
2023-04-05T11:35:24.510Z,0.95
2023-04-05T11:39:28.368Z,0.63
2023-04-05T11:43:34.978Z,0.57
2023-04-05T11:47:38.465Z,0.80
2023-04-05T11:51:42.759Z,0.77
2023-04-05T11:55:48.434Z,0.98
2023-04-05T11:59:54.235Z,1.08
2023-04-05T12:03:59.282Z,1.55
2023-04-05T12:08:02.844Z,0.90
2023-04-05T12:12:06.843Z,0.90
2023-04-05T12:16:11.509Z,1.45
2023-04-05T12:20:17.222Z,1.23
2023-04-05T12:24:20.909Z,1.08
2023-04-05T12:28:24.276Z,1.45
2023-04-05T12:32:38.117Z,1.30
2023-04-05T12:36:45.929Z,0.98
2023-04-05T12:40:49.493Z,1.33
2023-04-05T12:45:04.805Z,1.50
2023-04-05T12:49:12.150Z,1.70
2023-04-05T12:53:20.630Z,0.82
2023-04-05T12:57:31.641Z,1.08
2023-04-05T13:01:34.611Z,0.80
2023-04-05T13:05:39.470Z,0.82
2023-04-05T13:09:43.201Z,1.27
2023-04-05T13:13:48.963Z,0.80
2023-04-05T13:17:53.526Z,1.05
2023-04-05T13:21:58.268Z,1.10
2023-04-05T13:26:01.417Z,1.58
2023-04-05T13:30:05.403Z,1.13
2023-04-05T13:34:08.727Z,1.42
2023-04-05T13:38:14.260Z,0.80
2023-04-05T13:42:17.239Z,1.08
2023-04-05T13:46:21.107Z,1.08
2023-04-05T13:50:24.206Z,1.77
2023-04-05T13:54:29.100Z,1.02
2023-04-05T13:58:32.358Z,1.13
2023-04-05T14:02:36.319Z,0.93
2023-04-05T14:06:39.845Z,1.50
2023-04-05T14:10:44.785Z,1.10
2023-04-05T14:14:47.894Z,1.05
2023-04-05T14:18:51.715Z,1.15
2023-04-05T14:22:55.023Z,1.40
2023-04-05T14:26:59.830Z,0.90
2023-04-05T14:31:05.323Z,1.30
2023-04-05T14:35:11.026Z,1.30
2023-04-05T14:39:14.939Z,1.38
2023-04-05T14:43:20.011Z,1.35
2023-04-05T14:47:24.684Z,1.23
2023-04-05T14:51:29.770Z,1.48
2023-04-05T14:55:32.979Z,1.30
2023-04-05T14:59:37.704Z,1.02
2023-04-05T15:03:43.030Z,1.00
2023-04-05T15:07:46.151Z,1.25
2023-04-05T15:11:49.219Z,1.17
2023-04-05T15:15:55.185Z,1.30
2023-04-05T15:19:59.996Z,0.90
2023-04-05T15:24:04.346Z,1.08
2023-04-05T15:28:07.352Z,1.08
2023-04-05T15:32:11.848Z,1.42
2023-04-05T15:36:15.460Z,1.30
2023-04-05T15:40:18.996Z,1.75
2023-04-05T15:44:22.187Z,0.98
2023-04-05T15:48:27.299Z,1.50
2023-04-05T15:52:30.560Z,1.33
2023-04-05T15:56:34.563Z,1.33
2023-04-05T16:00:38.009Z,0.95
2023-04-05T16:04:42.864Z,1.27
2023-04-05T16:08:45.810Z,1.10
2023-04-05T16:12:50.720Z,1.00
2023-04-05T16:16:54.603Z,1.90
2023-04-05T16:20:59.611Z,1.27
2023-04-05T16:25:02.836Z,1.17
2023-04-05T16:29:05.995Z,1.00
2023-04-05T16:33:09.484Z,1.20
2023-04-05T16:37:14.618Z,1.35
2023-04-05T16:41:18.338Z,1.65
2023-04-05T16:45:21.800Z,1.65
2023-04-05T16:49:25.773Z,0.90
2023-04-05T16:53:31.475Z,1.73
2023-04-05T16:57:35.997Z,1.33
2023-04-05T17:01:39.881Z,1.85
2023-04-05T17:05:43.336Z,1.25
2023-04-05T17:09:47.877Z,1.17
2023-04-05T17:13:51.713Z,1.48
2023-04-05T17:17:55.628Z,1.20
2023-04-05T17:21:58.743Z,1.80
2023-04-05T17:26:05.258Z,1.60
2023-04-05T17:30:09.763Z,1.50
2023-04-05T17:34:15.200Z,1.67
2023-04-05T17:38:18.218Z,1.00
2023-04-05T17:42:23.561Z,1.30
2023-04-05T17:46:37.804Z,1.80
2023-04-05T17:50:44.427Z,2.05
2023-04-05T17:54:47.717Z,1.75
2023-04-05T17:58:52.319Z,1.38
2023-04-05T18:02:56.614Z,2.90
2023-04-05T18:06:59.634Z,1.48
2023-04-05T18:11:03.686Z,1.17
2023-04-05T18:15:09.372Z,2.17
2023-04-05T18:19:14.375Z,1.70
2023-04-05T18:23:17.911Z,1.70
2023-04-05T18:27:24.318Z,1.65
2023-04-05T18:31:30.557Z,1.15
2023-04-05T18:35:33.905Z,1.50
2023-04-05T18:39:37.001Z,1.45
2023-04-05T18:43:40.045Z,1.15
2023-04-05T18:47:45.109Z,1.23
2023-04-05T18:51:49.084Z,1.08
2023-04-05T18:55:52.961Z,1.65
2023-04-05T18:59:56.162Z,1.35
2023-04-05T19:04:01.190Z,1.88
2023-04-05T19:08:06.348Z,2.05
2023-04-05T19:12:10.416Z,1.77
2023-04-05T19:16:14.448Z,1.77
2023-04-05T19:20:19.877Z,2.17
2023-04-05T19:24:23.918Z,2.03
2023-04-05T19:28:29.517Z,1.15
2023-04-05T19:32:32.606Z,1.95
2023-04-05T19:36:39.255Z,2.10
2023-04-05T19:40:44.149Z,3.38
2023-04-05T19:44:51.795Z,3.08
2023-04-05T19:48:56.395Z,2.63
2023-04-05T19:53:01.115Z,2.40
2023-04-05T19:57:12.624Z,2.55
2023-04-05T20:01:33.006Z,2.08
2023-04-05T20:06:00.908Z,1.92
2023-04-05T20:10:16.557Z,2.60
2023-04-05T20:14:25.948Z,2.42
2023-04-05T20:18:29.655Z,1.83
2023-04-05T20:22:33.858Z,1.92
2023-04-05T20:26:39.047Z,2.58
2023-04-05T20:30:42.374Z,2.58
2023-04-05T20:34:47.108Z,2.25
2023-04-05T20:38:51.229Z,5.10
2023-04-05T20:42:56.487Z,3.63
2023-04-05T20:47:00.650Z,2.67
2023-04-05T20:51:08.345Z,3.58
2023-04-05T20:55:15.436Z,2.65
2023-04-05T20:59:20.101Z,2.40
2023-04-05T21:03:23.644Z,2.30
2023-04-05T21:07:27.022Z,1.98
2023-04-05T21:11:30.075Z,1.88
2023-04-05T21:15:36.039Z,3.03
2023-04-05T21:19:39.233Z,2.28
2023-04-05T21:23:42.409Z,2.30
2023-04-05T21:27:45.778Z,2.50
2023-04-05T21:31:50.591Z,2.67
2023-04-05T21:35:53.759Z,3.42
2023-04-05T21:39:57.419Z,2.75
2023-04-05T21:44:00.816Z,2.83
2023-04-05T21:48:07.780Z,2.83
2023-04-05T21:52:13.394Z,3.10
2023-04-05T21:56:19.718Z,3.05
2023-04-05T22:00:24.859Z,4.35
2023-04-05T22:04:30.062Z,2.72
2023-04-05T22:08:34.692Z,3.05
2023-04-05T22:12:38.043Z,2.63
2023-04-05T22:16:44.016Z,2.50
2023-04-05T22:20:48.679Z,3.00
2023-04-05T22:24:52.330Z,3.50
2023-04-05T22:28:55.775Z,3.72
2023-04-05T22:32:59.126Z,2.33
2023-04-05T22:37:05.217Z,3.67
2023-04-05T22:41:08.865Z,3.22
2023-04-05T22:45:12.816Z,3.20
2023-04-05T22:49:16.970Z,2.30
2023-04-05T22:53:22.035Z,3.45
2023-04-05T22:57:25.427Z,3.38
2023-04-05T23:01:29.069Z,3.65
2023-04-05T23:05:33.354Z,2.00
2023-04-05T23:09:39.103Z,2.90
2023-04-05T23:13:43.032Z,2.10
2023-04-05T23:17:46.850Z,2.97
2023-04-05T23:21:52.111Z,2.70
2023-04-05T23:25:56.696Z,2.75
2023-04-05T23:30:00.635Z,2.70
2023-04-05T23:34:03.932Z,2.00
2023-04-05T23:38:07.643Z,2.85
2023-04-05T23:42:12.215Z,2.22
2023-04-05T23:46:17.366Z,3.67
2023-04-05T23:50:20.626Z,2.63
2023-04-05T23:54:24.035Z,5.90
2023-04-05T23:58:29.072Z,2.47
